sensor_id;sensor_type;location;lat;lon;timestamp;pressure;altitude;pressure_sealevel;temperature;humidity
38530;BME280;24301;54.332;48.386;2023-03-15T00:00:14;99768.41;;;0.50;65.68
38530;BME280;24301;54.332;48.386;2023-03-15T00:02:40;99774.41;;;0.49;65.03
38530;BME280;24301;54.332;48.386;2023-03-15T00:05:06;99784.56;;;0.45;65.62
38530;BME280;24301;54.332;48.386;2023-03-15T00:07:32;99777.72;;;0.45;65.32
38530;BME280;24301;54.332;48.386;2023-03-15T00:09:57;99775.94;;;0.44;65.93
38530;BME280;24301;54.332;48.386;2023-03-15T00:12:23;99785.41;;;0.43;65.50
38530;BME280;24301;54.332;48.386;2023-03-15T00:14:49;99770.59;;;0.39;65.33
38530;BME280;24301;54.332;48.386;2023-03-15T00:17:15;99783.63;;;0.42;65.15
38530;BME280;24301;54.332;48.386;2023-03-15T00:19:41;99780.31;;;0.45;65.59
38530;BME280;24301;54.332;48.386;2023-03-15T00:22:08;99785.59;;;0.48;65.04
38530;BME280;24301;54.332;48.386;2023-03-15T00:24:33;99791.59;;;0.47;64.59
38530;BME280;24301;54.332;48.386;2023-03-15T00:26:59;99789.00;;;0.47;64.51
38530;BME280;24301;54.332;48.386;2023-03-15T00:29:25;99772.53;;;0.45;64.97
38530;BME280;24301;54.332;48.386;2023-03-15T00:31:51;99788.38;;;0.53;64.50
38530;BME280;24301;54.332;48.386;2023-03-15T00:34:17;99801.41;;;0.56;64.45
38530;BME280;24301;54.332;48.386;2023-03-15T00:36:48;99784.16;;;0.56;64.44
38530;BME280;24301;54.332;48.386;2023-03-15T00:39:14;99785.81;;;0.54;63.93
38530;BME280;24301;54.332;48.386;2023-03-15T00:41:40;99796.16;;;0.54;63.46
38530;BME280;24301;54.332;48.386;2023-03-15T00:44:06;99798.88;;;0.57;63.52
38530;BME280;24301;54.332;48.386;2023-03-15T00:46:32;99765.19;;;0.56;63.64
38530;BME280;24301;54.332;48.386;2023-03-15T00:48:58;99778.06;;;0.54;63.64
38530;BME280;24301;54.332;48.386;2023-03-15T00:51:24;99787.59;;;0.55;63.87
38530;BME280;24301;54.332;48.386;2023-03-15T00:53:52;99782.53;;;0.59;63.09
38530;BME280;24301;54.332;48.386;2023-03-15T00:56:20;99793.66;;;0.56;63.13
38530;BME280;24301;54.332;48.386;2023-03-15T00:58:47;99795.22;;;0.52;63.64
38530;BME280;24301;54.332;48.386;2023-03-15T01:01:16;99792.53;;;0.49;63.72
38530;BME280;24301;54.332;48.386;2023-03-15T01:03:43;99784.69;;;0.48;63.58
38530;BME280;24301;54.332;48.386;2023-03-15T01:06:12;99783.00;;;0.48;63.58
38530;BME280;24301;54.332;48.386;2023-03-15T01:08:38;99788.94;;;0.46;63.59
38530;BME280;24301;54.332;48.386;2023-03-15T01:11:09;99780.41;;;0.48;63.39
38530;BME280;24301;54.332;48.386;2023-03-15T01:13:36;99800.38;;;0.51;62.84
38530;BME280;24301;54.332;48.386;2023-03-15T01:16:02;99788.22;;;0.50;63.13
38530;BME280;24301;54.332;48.386;2023-03-15T01:18:29;99801.13;;;0.48;63.18
38530;BME280;24301;54.332;48.386;2023-03-15T01:20:56;99802.88;;;0.49;62.90
38530;BME280;24301;54.332;48.386;2023-03-15T01:23:22;99801.13;;;0.48;62.62
38530;BME280;24301;54.332;48.386;2023-03-15T01:25:48;99796.69;;;0.46;62.99
38530;BME280;24301;54.332;48.386;2023-03-15T01:28:14;99789.00;;;0.47;63.59
38530;BME280;24301;54.332;48.386;2023-03-15T01:30:50;99790.66;;;0.45;63.40
38530;BME280;24301;54.332;48.386;2023-03-15T01:33:17;99801.75;;;0.42;63.56
38530;BME280;24301;54.332;48.386;2023-03-15T01:35:43;99796.56;;;0.42;63.77
38530;BME280;24301;54.332;48.386;2023-03-15T01:38:09;99806.19;;;0.45;63.72
38530;BME280;24301;54.332;48.386;2023-03-15T01:40:40;99798.28;;;0.42;63.64
38530;BME280;24301;54.332;48.386;2023-03-15T01:46:02;99794.00;;;0.42;63.92
38530;BME280;24301;54.332;48.386;2023-03-15T01:51:54;99793.03;;;0.40;63.14
38530;BME280;24301;54.332;48.386;2023-03-15T01:54:03;99801.41;;;0.33;63.14
38530;BME280;24301;54.332;48.386;2023-03-15T01:56:34;99805.63;;;0.31;63.25
38530;BME280;24301;54.332;48.386;2023-03-15T01:59:04;99813.06;;;0.23;63.41
38530;BME280;24301;54.332;48.386;2023-03-15T02:01:31;99800.19;;;0.25;63.47
38530;BME280;24301;54.332;48.386;2023-03-15T02:04:04;99787.09;;;0.20;63.48
38530;BME280;24301;54.332;48.386;2023-03-15T02:06:36;99801.66;;;0.18;63.08
38530;BME280;24301;54.332;48.386;2023-03-15T02:09:08;99825.75;;;0.17;63.28
38530;BME280;24301;54.332;48.386;2023-03-15T02:11:40;99805.06;;;0.17;63.50
38530;BME280;24301;54.332;48.386;2023-03-15T02:14:10;99816.25;;;0.16;62.50
38530;BME280;24301;54.332;48.386;2023-03-15T02:16:39;99813.38;;;0.10;62.87
38530;BME280;24301;54.332;48.386;2023-03-15T02:19:16;99786.69;;;0.11;62.87
38530;BME280;24301;54.332;48.386;2023-03-15T02:22:04;99808.22;;;0.10;63.02
38530;BME280;24301;54.332;48.386;2023-03-15T02:24:43;99794.63;;;0.14;62.71
38530;BME280;24301;54.332;48.386;2023-03-15T02:27:12;99819.50;;;0.12;62.43
38530;BME280;24301;54.332;48.386;2023-03-15T02:29:40;99811.63;;;0.09;62.71
38530;BME280;24301;54.332;48.386;2023-03-15T02:32:06;99814.97;;;0.06;62.38
38530;BME280;24301;54.332;48.386;2023-03-15T02:34:32;99832.13;;;0.04;62.72
38530;BME280;24301;54.332;48.386;2023-03-15T02:36:58;99820.97;;;0.05;62.00
38530;BME280;24301;54.332;48.386;2023-03-15T02:39:26;99822.66;;;0.05;62.20
38530;BME280;24301;54.332;48.386;2023-03-15T02:41:57;99818.31;;;0.04;61.77
38530;BME280;24301;54.332;48.386;2023-03-15T02:44:34;99826.03;;;0.02;62.27
38530;BME280;24301;54.332;48.386;2023-03-15T02:47:09;99822.50;;;0.00;62.31
38530;BME280;24301;54.332;48.386;2023-03-15T02:49:39;99823.22;;;-0.03;61.34
38530;BME280;24301;54.332;48.386;2023-03-15T02:52:08;99835.34;;;-0.02;61.53
38530;BME280;24301;54.332;48.386;2023-03-15T02:54:34;99833.78;;;0.02;62.03
38530;BME280;24301;54.332;48.386;2023-03-15T02:57:01;99833.25;;;0.11;61.33
38530;BME280;24301;54.332;48.386;2023-03-15T02:59:28;99808.47;;;0.16;61.16
38530;BME280;24301;54.332;48.386;2023-03-15T03:01:54;99824.94;;;0.18;60.98
38530;BME280;24301;54.332;48.386;2023-03-15T03:04:20;99836.41;;;0.25;61.40
38530;BME280;24301;54.332;48.386;2023-03-15T03:06:46;99842.59;;;0.28;61.07
38530;BME280;24301;54.332;48.386;2023-03-15T03:09:16;99840.25;;;0.35;60.49
38530;BME280;24301;54.332;48.386;2023-03-15T03:11:42;99834.56;;;0.43;60.41
38530;BME280;24301;54.332;48.386;2023-03-15T03:14:08;99839.94;;;0.48;60.33
38530;BME280;24301;54.332;48.386;2023-03-15T03:16:34;99843.88;;;0.61;60.23
38530;BME280;24301;54.332;48.386;2023-03-15T03:19:00;99845.88;;;0.68;59.68
38530;BME280;24301;54.332;48.386;2023-03-15T03:21:29;99851.28;;;0.75;59.54
38530;BME280;24301;54.332;48.386;2023-03-15T03:23:55;99835.94;;;0.79;59.76
38530;BME280;24301;54.332;48.386;2023-03-15T03:26:21;99847.34;;;0.84;58.73
38530;BME280;24301;54.332;48.386;2023-03-15T03:28:53;99842.78;;;1.24;58.18
38530;BME280;24301;54.332;48.386;2023-03-15T03:31:23;99822.41;;;1.58;57.78
38530;BME280;24301;54.332;48.386;2023-03-15T03:33:51;99847.69;;;2.15;57.00
38530;BME280;24301;54.332;48.386;2023-03-15T03:36:18;99839.47;;;3.14;55.52
38530;BME280;24301;54.332;48.386;2023-03-15T03:38:45;99845.91;;;3.92;53.56
38530;BME280;24301;54.332;48.386;2023-03-15T03:41:13;99848.00;;;4.79;51.99
38530;BME280;24301;54.332;48.386;2023-03-15T03:43:40;99867.97;;;5.59;49.88
38530;BME280;24301;54.332;48.386;2023-03-15T03:46:06;99857.81;;;5.30;48.56
38530;BME280;24301;54.332;48.386;2023-03-15T03:48:36;99871.56;;;4.46;49.42
38530;BME280;24301;54.332;48.386;2023-03-15T03:51:02;99860.75;;;4.29;50.20
38530;BME280;24301;54.332;48.386;2023-03-15T03:53:28;99883.53;;;4.75;49.64
38530;BME280;24301;54.332;48.386;2023-03-15T03:55:54;99863.13;;;4.20;49.11
38530;BME280;24301;54.332;48.386;2023-03-15T03:58:21;99872.69;;;3.55;50.20
38530;BME280;24301;54.332;48.386;2023-03-15T04:00:57;99890.47;;;3.11;51.11
38530;BME280;24301;54.332;48.386;2023-03-15T04:03:26;99887.06;;;2.84;51.56
38530;BME280;24301;54.332;48.386;2023-03-15T04:05:57;99895.16;;;2.66;51.89
38530;BME280;24301;54.332;48.386;2023-03-15T04:08:24;99878.06;;;2.46;52.06
38530;BME280;24301;54.332;48.386;2023-03-15T04:10:54;99885.59;;;2.38;52.05
38530;BME280;24301;54.332;48.386;2023-03-15T04:13:24;99898.16;;;2.25;52.39
38530;BME280;24301;54.332;48.386;2023-03-15T04:15:50;99880.63;;;2.18;52.86
38530;BME280;24301;54.332;48.386;2023-03-15T04:18:17;99882.91;;;2.09;52.77
38530;BME280;24301;54.332;48.386;2023-03-15T04:20:46;99901.53;;;2.23;53.15
38530;BME280;24301;54.332;48.386;2023-03-15T04:23:15;99903.56;;;2.32;52.32
38530;BME280;24301;54.332;48.386;2023-03-15T04:26:04;99913.63;;;2.48;52.44
38530;BME280;24301;54.332;48.386;2023-03-15T04:28:55;99928.22;;;2.99;51.62
38530;BME280;24301;54.332;48.386;2023-03-15T04:31:40;99922.13;;;3.87;50.82
38530;BME280;24301;54.332;48.386;2023-03-15T04:34:30;99918.00;;;5.01;48.29
38530;BME280;24301;54.332;48.386;2023-03-15T04:37:04;99931.41;;;5.58;47.32
38530;BME280;24301;54.332;48.386;2023-03-15T04:39:46;99932.72;;;5.81;46.24
38530;BME280;24301;54.332;48.386;2023-03-15T04:42:29;99932.06;;;5.48;46.09
38530;BME280;24301;54.332;48.386;2023-03-15T04:45:15;99939.38;;;5.25;46.03
38530;BME280;24301;54.332;48.386;2023-03-15T04:48:07;99944.22;;;5.08;46.21
38530;BME280;24301;54.332;48.386;2023-03-15T04:50:42;99949.19;;;4.98;45.95
38530;BME280;24301;54.332;48.386;2023-03-15T04:53:41;99957.59;;;4.85;46.20
38530;BME280;24301;54.332;48.386;2023-03-15T04:56:28;99958.94;;;4.69;46.38
38530;BME280;24301;54.332;48.386;2023-03-15T04:59:08;99964.25;;;4.73;46.49
38530;BME280;24301;54.332;48.386;2023-03-15T05:01:58;99973.03;;;4.79;46.53
38530;BME280;24301;54.332;48.386;2023-03-15T05:04:33;99959.41;;;4.89;46.16
38530;BME280;24301;54.332;48.386;2023-03-15T05:07:19;99936.22;;;5.00;46.04
38530;BME280;24301;54.332;48.386;2023-03-15T05:10:08;99961.78;;;5.16;45.84
38530;BME280;24301;54.332;48.386;2023-03-15T05:12:53;99946.69;;;5.41;44.93
38530;BME280;24301;54.332;48.386;2023-03-15T05:15:42;99942.53;;;5.51;44.87
38530;BME280;24301;54.332;48.386;2023-03-15T05:18:24;99957.09;;;5.40;44.48
38530;BME280;24301;54.332;48.386;2023-03-15T05:21:22;99957.94;;;5.39;44.60
38530;BME280;24301;54.332;48.386;2023-03-15T05:24:08;99966.13;;;5.56;44.08
38530;BME280;24301;54.332;48.386;2023-03-15T05:26:49;99973.84;;;6.37;43.88
38530;BME280;24301;54.332;48.386;2023-03-15T05:29:40;99957.13;;;6.78;42.21
38530;BME280;24301;54.332;48.386;2023-03-15T05:32:38;99937.44;;;6.45;42.13
38530;BME280;24301;54.332;48.386;2023-03-15T05:35:27;99971.78;;;6.19;41.98
38530;BME280;24301;54.332;48.386;2023-03-15T05:38:16;99953.09;;;6.45;42.06
38530;BME280;24301;54.332;48.386;2023-03-15T05:40:54;99953.34;;;6.59;41.57
38530;BME280;24301;54.332;48.386;2023-03-15T05:43:35;99966.22;;;7.64;40.87
38530;BME280;24301;54.332;48.386;2023-03-15T05:46:24;99968.63;;;9.19;38.70
38530;BME280;24301;54.332;48.386;2023-03-15T05:48:58;99970.72;;;9.76;37.42
38530;BME280;24301;54.332;48.386;2023-03-15T05:51:32;99976.72;;;9.54;36.97
38530;BME280;24301;54.332;48.386;2023-03-15T05:54:07;99968.97;;;11.95;35.16
38530;BME280;24301;54.332;48.386;2023-03-15T05:56:53;99971.16;;;12.74;33.07
38530;BME280;24301;54.332;48.386;2023-03-15T05:59:33;99977.03;;;13.10;31.86
38530;BME280;24301;54.332;48.386;2023-03-15T06:02:17;99981.78;;;13.64;31.30
38530;BME280;24301;54.332;48.386;2023-03-15T06:05:03;99982.59;;;14.40;30.35
38530;BME280;24301;54.332;48.386;2023-03-15T06:07:29;99958.84;;;14.35;29.74
38530;BME280;24301;54.332;48.386;2023-03-15T06:09:56;99970.41;;;12.59;30.29
38530;BME280;24301;54.332;48.386;2023-03-15T06:12:22;99981.38;;;11.75;31.97
38530;BME280;24301;54.332;48.386;2023-03-15T06:14:48;99985.00;;;10.98;32.14
38530;BME280;24301;54.332;48.386;2023-03-15T06:17:14;99988.50;;;10.64;33.06
38530;BME280;24301;54.332;48.386;2023-03-15T06:19:42;99968.13;;;11.92;31.64
38530;BME280;24301;54.332;48.386;2023-03-15T06:22:09;99976.22;;;11.21;31.93
38530;BME280;24301;54.332;48.386;2023-03-15T06:24:42;99969.13;;;10.20;32.90
38530;BME280;24301;54.332;48.386;2023-03-15T06:27:08;99982.91;;;9.65;33.85
38530;BME280;24301;54.332;48.386;2023-03-15T06:29:35;99989.19;;;10.00;33.81
38530;BME280;24301;54.332;48.386;2023-03-15T06:32:02;99985.69;;;10.02;33.34
38530;BME280;24301;54.332;48.386;2023-03-15T06:34:28;99973.56;;;10.43;33.12
38530;BME280;24301;54.332;48.386;2023-03-15T06:36:54;99967.28;;;9.91;33.15
38530;BME280;24301;54.332;48.386;2023-03-15T06:39:21;99981.00;;;9.39;33.71
38530;BME280;24301;54.332;48.386;2023-03-15T06:41:48;99985.72;;;10.12;33.73
38530;BME280;24301;54.332;48.386;2023-03-15T06:44:19;99979.59;;;11.71;31.99
38530;BME280;24301;54.332;48.386;2023-03-15T06:46:50;99966.28;;;13.26;30.36
38530;BME280;24301;54.332;48.386;2023-03-15T06:49:16;99965.41;;;13.30;29.42
38530;BME280;24301;54.332;48.386;2023-03-15T06:51:42;99960.59;;;12.74;29.71
38530;BME280;24301;54.332;48.386;2023-03-15T06:54:10;99967.03;;;12.35;30.06
38530;BME280;24301;54.332;48.386;2023-03-15T06:56:36;99967.03;;;14.17;28.79
38530;BME280;24301;54.332;48.386;2023-03-15T06:59:03;99973.97;;;15.83;26.74
38530;BME280;24301;54.332;48.386;2023-03-15T07:01:29;99963.44;;;16.98;25.31
38530;BME280;24301;54.332;48.386;2023-03-15T07:03:55;99991.97;;;17.59;24.92
38530;BME280;24301;54.332;48.386;2023-03-15T07:06:20;99973.81;;;18.36;23.50
38530;BME280;24301;54.332;48.386;2023-03-15T07:08:46;99993.63;;;18.83;22.97
38530;BME280;24301;54.332;48.386;2023-03-15T07:11:12;100002.66;;;19.84;22.49
38530;BME280;24301;54.332;48.386;2023-03-15T07:13:38;100002.66;;;21.20;21.74
38530;BME280;24301;54.332;48.386;2023-03-15T07:16:04;100004.63;;;21.79;20.53
38530;BME280;24301;54.332;48.386;2023-03-15T07:18:33;100010.88;;;22.18;19.35
38530;BME280;24301;54.332;48.386;2023-03-15T07:21:00;99996.81;;;22.52;19.17
38530;BME280;24301;54.332;48.386;2023-03-15T07:23:27;100015.34;;;22.75;18.93
38530;BME280;24301;54.332;48.386;2023-03-15T07:25:54;100013.47;;;22.77;18.53
38530;BME280;24301;54.332;48.386;2023-03-15T07:28:21;100003.97;;;22.89;18.87
38530;BME280;24301;54.332;48.386;2023-03-15T07:30:57;100000.75;;;22.44;17.61
38530;BME280;24301;54.332;48.386;2023-03-15T07:33:25;99980.34;;;21.42;18.60
38530;BME280;24301;54.332;48.386;2023-03-15T07:35:51;99992.38;;;20.66;19.28
38530;BME280;24301;54.332;48.386;2023-03-15T07:38:24;100013.25;;;20.57;19.59
38530;BME280;24301;54.332;48.386;2023-03-15T07:40:51;99987.31;;;20.83;19.25
38530;BME280;24301;54.332;48.386;2023-03-15T07:43:17;99984.38;;;20.66;19.46
38530;BME280;24301;54.332;48.386;2023-03-15T07:45:47;99985.91;;;20.50;19.45
38530;BME280;24301;54.332;48.386;2023-03-15T07:48:13;100002.94;;;20.70;19.24
38530;BME280;24301;54.332;48.386;2023-03-15T07:50:40;99988.75;;;21.33;19.19
38530;BME280;24301;54.332;48.386;2023-03-15T07:53:06;99985.38;;;21.50;18.85
38530;BME280;24301;54.332;48.386;2023-03-15T07:55:33;99982.63;;;21.51;18.38
38530;BME280;24301;54.332;48.386;2023-03-15T07:57:59;99965.97;;;21.45;18.45
38530;BME280;24301;54.332;48.386;2023-03-15T08:00:26;99955.81;;;20.68;18.48
38530;BME280;24301;54.332;48.386;2023-03-15T08:02:52;99985.50;;;20.15;19.06
38530;BME280;24301;54.332;48.386;2023-03-15T08:05:18;99991.41;;;20.23;19.12
38530;BME280;24301;54.332;48.386;2023-03-15T08:07:45;99994.97;;;20.46;18.99
38530;BME280;24301;54.332;48.386;2023-03-15T08:10:12;99974.00;;;20.36;18.66
38530;BME280;24301;54.332;48.386;2023-03-15T08:12:39;99971.13;;;20.41;18.80
38530;BME280;24301;54.332;48.386;2023-03-15T08:15:11;99973.75;;;20.43;18.76
38530;BME280;24301;54.332;48.386;2023-03-15T08:17:38;99966.13;;;19.60;19.00
38530;BME280;24301;54.332;48.386;2023-03-15T08:20:06;99980.50;;;18.20;20.15
38530;BME280;24301;54.332;48.386;2023-03-15T08:22:34;99975.25;;;16.08;22.04
38530;BME280;24301;54.332;48.386;2023-03-15T08:25:00;99965.19;;;14.22;24.13
38530;BME280;24301;54.332;48.386;2023-03-15T08:27:26;99953.56;;;12.79;25.63
38530;BME280;24301;54.332;48.386;2023-03-15T08:29:52;99950.69;;;11.56;27.14
38530;BME280;24301;54.332;48.386;2023-03-15T08:32:18;99956.06;;;10.66;28.45
38530;BME280;24301;54.332;48.386;2023-03-15T08:34:44;99941.00;;;9.96;29.61
38530;BME280;24301;54.332;48.386;2023-03-15T08:37:10;99945.97;;;9.28;30.26
38530;BME280;24301;54.332;48.386;2023-03-15T08:39:37;99956.13;;;8.81;30.83
38530;BME280;24301;54.332;48.386;2023-03-15T08:42:04;99940.16;;;8.50;31.61
38530;BME280;24301;54.332;48.386;2023-03-15T08:44:30;99952.09;;;8.23;31.99
38530;BME280;24301;54.332;48.386;2023-03-15T08:46:56;99953.53;;;7.96;32.07
38530;BME280;24301;54.332;48.386;2023-03-15T08:49:22;99949.78;;;7.75;32.67
38530;BME280;24301;54.332;48.386;2023-03-15T08:51:48;99947.88;;;7.62;33.33
38530;BME280;24301;54.332;48.386;2023-03-15T08:54:13;99964.31;;;7.52;33.26
38530;BME280;24301;54.332;48.386;2023-03-15T08:56:40;99955.63;;;7.54;33.73
38530;BME280;24301;54.332;48.386;2023-03-15T08:59:07;99953.06;;;7.59;34.17
38530;BME280;24301;54.332;48.386;2023-03-15T09:01:33;99965.22;;;7.54;34.13
38530;BME280;24301;54.332;48.386;2023-03-15T09:04:00;99949.34;;;7.40;33.80
38530;BME280;24301;54.332;48.386;2023-03-15T09:06:27;99960.63;;;7.36;34.32
38530;BME280;24301;54.332;48.386;2023-03-15T09:08:53;99961.41;;;7.30;34.91
38530;BME280;24301;54.332;48.386;2023-03-15T09:11:20;99934.31;;;7.25;34.49
38530;BME280;24301;54.332;48.386;2023-03-15T09:13:46;99947.19;;;7.12;35.08
38530;BME280;24301;54.332;48.386;2023-03-15T09:16:12;99941.84;;;7.03;34.40
38530;BME280;24301;54.332;48.386;2023-03-15T09:18:38;99948.63;;;6.90;34.83
38530;BME280;24301;54.332;48.386;2023-03-15T09:21:09;99946.81;;;6.87;35.50
38530;BME280;24301;54.332;48.386;2023-03-15T09:23:34;99955.72;;;7.00;35.67
38530;BME280;24301;54.332;48.386;2023-03-15T09:26:00;99949.63;;;7.00;35.75
38530;BME280;24301;54.332;48.386;2023-03-15T09:28:26;99956.72;;;7.07;35.42
38530;BME280;24301;54.332;48.386;2023-03-15T09:30:53;99953.28;;;7.10;35.56
38530;BME280;24301;54.332;48.386;2023-03-15T09:33:20;99957.56;;;7.06;35.39
38530;BME280;24301;54.332;48.386;2023-03-15T09:35:50;99952.28;;;7.03;35.35
38530;BME280;24301;54.332;48.386;2023-03-15T09:38:16;99934.84;;;7.02;35.66
38530;BME280;24301;54.332;48.386;2023-03-15T09:40:43;99948.66;;;6.93;35.49
38530;BME280;24301;54.332;48.386;2023-03-15T09:48:33;99948.56;;;6.88;36.31
38530;BME280;24301;54.332;48.386;2023-03-15T09:54:11;99942.66;;;6.99;36.10
38530;BME280;24301;54.332;48.386;2023-03-15T09:59:11;99927.81;;;6.98;35.93
38530;BME280;24301;54.332;48.386;2023-03-15T10:01:41;99931.28;;;6.97;36.10
38530;BME280;24301;54.332;48.386;2023-03-15T10:04:27;99938.31;;;7.01;36.57
38530;BME280;24301;54.332;48.386;2023-03-15T10:06:56;99942.75;;;7.05;36.18
38530;BME280;24301;54.332;48.386;2023-03-15T10:09:25;99935.06;;;7.17;36.15
38530;BME280;24301;54.332;48.386;2023-03-15T10:12:09;99922.88;;;7.19;36.57
38530;BME280;24301;54.332;48.386;2023-03-15T10:17:10;99930.59;;;7.10;36.12
38530;BME280;24301;54.332;48.386;2023-03-15T10:19:48;99922.75;;;7.10;36.76
38530;BME280;24301;54.332;48.386;2023-03-15T10:22:28;99931.41;;;7.06;36.53
38530;BME280;24301;54.332;48.386;2023-03-15T10:25:19;99920.97;;;7.06;36.55
38530;BME280;24301;54.332;48.386;2023-03-15T10:27:51;99925.25;;;7.02;36.23
38530;BME280;24301;54.332;48.386;2023-03-15T10:30:22;99913.97;;;7.05;36.17
38530;BME280;24301;54.332;48.386;2023-03-15T10:35:19;99934.19;;;7.18;35.91
38530;BME280;24301;54.332;48.386;2023-03-15T10:37:46;99907.13;;;7.13;36.23
38530;BME280;24301;54.332;48.386;2023-03-15T10:40:13;99924.44;;;7.05;36.21
38530;BME280;24301;54.332;48.386;2023-03-15T10:42:44;99909.50;;;6.96;36.15
38530;BME280;24301;54.332;48.386;2023-03-15T10:45:24;99907.78;;;6.98;36.45
38530;BME280;24301;54.332;48.386;2023-03-15T10:47:51;99915.63;;;6.98;36.18
38530;BME280;24301;54.332;48.386;2023-03-15T10:50:28;99905.28;;;7.06;36.39
38530;BME280;24301;54.332;48.386;2023-03-15T10:52:56;99910.53;;;7.08;36.70
38530;BME280;24301;54.332;48.386;2023-03-15T10:55:43;99904.41;;;7.07;36.09
38530;BME280;24301;54.332;48.386;2023-03-15T11:00:50;99914.97;;;7.13;35.93
38530;BME280;24301;54.332;48.386;2023-03-15T11:03:23;99908.78;;;7.08;36.04
38530;BME280;24301;54.332;48.386;2023-03-15T11:05:55;99909.66;;;7.07;36.00
38530;BME280;24301;54.332;48.386;2023-03-15T11:08:43;99909.59;;;7.04;35.76
38530;BME280;24301;54.332;48.386;2023-03-15T11:11:08;99936.66;;;7.06;36.04
38530;BME280;24301;54.332;48.386;2023-03-15T11:13:37;99924.47;;;7.08;36.03
38530;BME280;24301;54.332;48.386;2023-03-15T11:21:12;99927.13;;;7.11;36.07
38530;BME280;24301;54.332;48.386;2023-03-15T11:23:50;99929.66;;;7.07;36.19
38530;BME280;24301;54.332;48.386;2023-03-15T11:26:19;99921.00;;;7.09;37.00
38530;BME280;24301;54.332;48.386;2023-03-15T11:28:51;99904.56;;;7.18;37.19
38530;BME280;24301;54.332;48.386;2023-03-15T11:31:19;99911.59;;;7.21;37.12
38530;BME280;24301;54.332;48.386;2023-03-15T11:34:12;99924.69;;;7.22;37.08
38530;BME280;24301;54.332;48.386;2023-03-15T11:36:44;99924.66;;;7.21;37.61
38530;BME280;24301;54.332;48.386;2023-03-15T11:39:14;99937.75;;;7.21;37.25
38530;BME280;24301;54.332;48.386;2023-03-15T11:41:53;99935.22;;;7.27;37.58
38530;BME280;24301;54.332;48.386;2023-03-15T11:44:27;99933.50;;;7.29;37.24
38530;BME280;24301;54.332;48.386;2023-03-15T11:49:54;99942.31;;;7.37;38.29
38530;BME280;24301;54.332;48.386;2023-03-15T11:52:22;99912.72;;;7.41;37.55
38530;BME280;24301;54.332;48.386;2023-03-15T11:54:51;99924.91;;;7.39;38.15
38530;BME280;24301;54.332;48.386;2023-03-15T11:59:55;99920.41;;;7.30;38.26
38530;BME280;24301;54.332;48.386;2023-03-15T12:04:49;99930.09;;;7.36;38.28
38530;BME280;24301;54.332;48.386;2023-03-15T12:09:55;99931.91;;;7.42;38.09
38530;BME280;24301;54.332;48.386;2023-03-15T12:17:58;99928.59;;;7.54;37.49
38530;BME280;24301;54.332;48.386;2023-03-15T12:20:35;99944.44;;;7.66;37.19
38530;BME280;24301;54.332;48.386;2023-03-15T12:28:21;99938.31;;;7.62;37.06
38530;BME280;24301;54.332;48.386;2023-03-15T12:30:53;99931.25;;;7.57;36.70
38530;BME280;24301;54.332;48.386;2023-03-15T12:33:22;99939.06;;;7.54;36.76
38530;BME280;24301;54.332;48.386;2023-03-15T12:35:49;99926.78;;;7.50;36.38
38530;BME280;24301;54.332;48.386;2023-03-15T12:38:21;99918.88;;;7.45;36.32
38530;BME280;24301;54.332;48.386;2023-03-15T12:40:49;99937.09;;;7.37;36.18
38530;BME280;24301;54.332;48.386;2023-03-15T12:46:04;99917.88;;;7.33;36.79
38530;BME280;24301;54.332;48.386;2023-03-15T12:48:31;99931.78;;;7.31;36.58
38530;BME280;24301;54.332;48.386;2023-03-15T12:50:59;99922.09;;;7.25;36.15
38530;BME280;24301;54.332;48.386;2023-03-15T12:58:59;99918.63;;;7.25;36.37
38530;BME280;24301;54.332;48.386;2023-03-15T13:01:29;99918.63;;;7.25;36.63
38530;BME280;24301;54.332;48.386;2023-03-15T13:03:57;99929.13;;;7.29;36.08
38530;BME280;24301;54.332;48.386;2023-03-15T13:06:49;99908.19;;;7.28;36.36
38530;BME280;24301;54.332;48.386;2023-03-15T13:12:22;99913.28;;;7.17;36.23
38530;BME280;24301;54.332;48.386;2023-03-15T13:17:41;99902.69;;;7.09;36.33
38530;BME280;24301;54.332;48.386;2023-03-15T13:29:09;99909.41;;;6.90;36.57
38530;BME280;24301;54.332;48.386;2023-03-15T13:31:37;99914.53;;;6.84;36.98
38530;BME280;24301;54.332;48.386;2023-03-15T13:34:12;99918.84;;;6.80;36.50
38530;BME280;24301;54.332;48.386;2023-03-15T13:36:42;99922.22;;;6.74;36.18
38530;BME280;24301;54.332;48.386;2023-03-15T13:39:19;99943.06;;;6.70;36.54
38530;BME280;24301;54.332;48.386;2023-03-15T13:41:48;99930.78;;;6.64;37.10
38530;BME280;24301;54.332;48.386;2023-03-15T13:44:20;99928.06;;;6.58;36.77
38530;BME280;24301;54.332;48.386;2023-03-15T13:46:47;99915.78;;;6.52;37.41
38530;BME280;24301;54.332;48.386;2023-03-15T13:49:14;99924.47;;;6.51;36.87
38530;BME280;24301;54.332;48.386;2023-03-15T13:51:40;99908.72;;;6.46;37.53
38530;BME280;24301;54.332;48.386;2023-03-15T13:54:17;99940.16;;;6.53;37.26
38530;BME280;24301;54.332;48.386;2023-03-15T13:57:18;99947.97;;;6.51;37.54
38530;BME280;24301;54.332;48.386;2023-03-15T14:02:21;99937.31;;;6.39;37.99
38530;BME280;24301;54.332;48.386;2023-03-15T14:04:58;99935.50;;;6.35;37.70
38530;BME280;24301;54.332;48.386;2023-03-15T14:07:37;99934.59;;;6.32;38.04
38530;BME280;24301;54.332;48.386;2023-03-15T14:10:36;99919.63;;;6.22;38.23
38530;BME280;24301;54.332;48.386;2023-03-15T14:13:22;99947.44;;;6.20;37.63
38530;BME280;24301;54.332;48.386;2023-03-15T14:15:49;99926.31;;;6.08;37.49
38530;BME280;24301;54.332;48.386;2023-03-15T14:18:22;99935.88;;;6.07;38.43
38530;BME280;24301;54.332;48.386;2023-03-15T14:21:02;99927.13;;;6.05;38.15
38530;BME280;24301;54.332;48.386;2023-03-15T14:23:30;99925.97;;;5.92;38.33
38530;BME280;24301;54.332;48.386;2023-03-15T14:26:22;99933.72;;;5.87;39.23
38530;BME280;24301;54.332;48.386;2023-03-15T14:29:06;99928.31;;;5.78;39.23
38530;BME280;24301;54.332;48.386;2023-03-15T14:31:49;99930.63;;;5.64;38.97
38530;BME280;24301;54.332;48.386;2023-03-15T14:36:44;99939.00;;;5.47;39.77